sensor_id;sensor_type;location;lat;lon;timestamp;pressure;altitude;pressure_sealevel;temperature;humidity
10978;BME280;5542;48.272;10.794;2023-01-31T00:33:57;96393.81;;;1.59;82.53
10978;BME280;5542;48.272;10.794;2023-01-31T00:36:26;96398.03;;;1.52;82.95
10978;BME280;5542;48.272;10.794;2023-01-31T00:38:55;96390.59;;;1.57;82.64
10978;BME280;5542;48.272;10.794;2023-01-31T00:41:24;96389.09;;;1.54;83.16
10978;BME280;5542;48.272;10.794;2023-01-31T00:43:51;96386.00;;;1.51;82.68
10978;BME280;5542;48.272;10.794;2023-01-31T00:46:18;96394.25;;;1.46;83.49
10978;BME280;5542;48.272;10.794;2023-01-31T00:48:46;96384.56;;;1.57;82.94
10978;BME280;5542;48.272;10.794;2023-01-31T00:51:14;96394.47;;;1.61;82.62
10978;BME280;5542;48.272;10.794;2023-01-31T00:53:41;96385.88;;;1.61;82.18
10978;BME280;5542;48.272;10.794;2023-01-31T00:56:09;96389.28;;;1.53;82.55
10978;BME280;5542;48.272;10.794;2023-01-31T00:58:37;96392.31;;;1.48;82.75
10978;BME280;5542;48.272;10.794;2023-01-31T01:01:05;96395.09;;;1.55;82.38
10978;BME280;5542;48.272;10.794;2023-01-31T01:03:33;96389.06;;;1.46;82.83
10978;BME280;5542;48.272;10.794;2023-01-31T01:05:59;96394.25;;;1.46;83.02
10978;BME280;5542;48.272;10.794;2023-01-31T01:08:28;96391.00;;;1.44;83.01
10978;BME280;5542;48.272;10.794;2023-01-31T01:10:55;96392.84;;;1.60;82.29
10978;BME280;5542;48.272;10.794;2023-01-31T01:13:22;96392.84;;;1.52;82.70
10978;BME280;5542;48.272;10.794;2023-01-31T01:15:49;96386.34;;;1.56;82.70
10978;BME280;5542;48.272;10.794;2023-01-31T01:18:15;96392.84;;;1.52;82.89
10978;BME280;5542;48.272;10.794;2023-01-31T01:20:42;96394.28;;;1.54;82.82
10978;BME280;5542;48.272;10.794;2023-01-31T01:23:08;96393.81;;;1.59;82.67
10978;BME280;5542;48.272;10.794;2023-01-31T01:25:43;96390.69;;;1.82;81.53
10978;BME280;5542;48.272;10.794;2023-01-31T01:28:10;96399.22;;;1.74;81.87
10978;BME280;5542;48.272;10.794;2023-01-31T01:30:37;96394.50;;;1.69;81.50
10978;BME280;5542;48.272;10.794;2023-01-31T01:33:03;96395.78;;;1.57;82.16
10978;BME280;5542;48.272;10.794;2023-01-31T01:35:30;96399.81;;;1.60;82.47
10978;BME280;5542;48.272;10.794;2023-01-31T01:37:56;96399.97;;;1.58;82.68
10978;BME280;5542;48.272;10.794;2023-01-31T01:40:23;96402.56;;;1.58;82.49
10978;BME280;5542;48.272;10.794;2023-01-31T01:42:51;96401.72;;;1.49;82.87
10978;BME280;5542;48.272;10.794;2023-01-31T01:45:17;96398.84;;;1.52;82.92
10978;BME280;5542;48.272;10.794;2023-01-31T01:47:46;96401.88;;;1.48;82.52
10978;BME280;5542;48.272;10.794;2023-01-31T01:50:18;96403.97;;;1.44;82.85
10978;BME280;5542;48.272;10.794;2023-01-31T01:52:48;96408.59;;;1.33;83.72
10978;BME280;5542;48.272;10.794;2023-01-31T01:55:20;96401.84;;;1.40;83.18
10978;BME280;5542;48.272;10.794;2023-01-31T01:57:51;96410.88;;;1.36;83.75
10978;BME280;5542;48.272;10.794;2023-01-31T02:00:20;96410.59;;;1.47;82.88
10978;BME280;5542;48.272;10.794;2023-01-31T02:02:49;96414.16;;;1.46;82.96
10978;BME280;5542;48.272;10.794;2023-01-31T02:05:21;96420.38;;;1.53;82.64
10978;BME280;5542;48.272;10.794;2023-01-31T02:07:49;96421.41;;;1.34;83.01
10978;BME280;5542;48.272;10.794;2023-01-31T02:10:19;96427.13;;;1.38;82.84
10978;BME280;5542;48.272;10.794;2023-01-31T02:12:48;96430.75;;;1.53;81.73
10978;BME280;5542;48.272;10.794;2023-01-31T02:15:16;96425.00;;;1.41;81.60
10978;BME280;5542;48.272;10.794;2023-01-31T02:17:42;96431.63;;;1.36;82.12
10978;BME280;5542;48.272;10.794;2023-01-31T02:20:24;96429.03;;;1.36;82.17
10978;BME280;5542;48.272;10.794;2023-01-31T02:23:06;96435.13;;;1.26;82.07
10978;BME280;5542;48.272;10.794;2023-01-31T02:29:05;96422.69;;;1.30;82.37
10978;BME280;5542;48.272;10.794;2023-01-31T02:34:43;96424.50;;;1.12;82.66
10978;BME280;5542;48.272;10.794;2023-01-31T02:37:19;96427.72;;;1.06;83.22
10978;BME280;5542;48.272;10.794;2023-01-31T02:39:55;96424.88;;;1.17;82.41
10978;BME280;5542;48.272;10.794;2023-01-31T02:42:32;96424.59;;;1.02;82.52
10978;BME280;5542;48.272;10.794;2023-01-31T02:45:06;96428.00;;;1.02;82.72
10978;BME280;5542;48.272;10.794;2023-01-31T02:47:43;96426.69;;;0.98;83.08
10978;BME280;5542;48.272;10.794;2023-01-31T02:50:23;96427.59;;;0.89;83.70
10978;BME280;5542;48.272;10.794;2023-01-31T02:52:52;96436.31;;;0.88;83.30
10978;BME280;5542;48.272;10.794;2023-01-31T02:55:27;96437.91;;;0.81;83.28
10978;BME280;5542;48.272;10.794;2023-01-31T02:58:13;96444.03;;;0.80;83.10
10978;BME280;5542;48.272;10.794;2023-01-31T03:00:43;96442.63;;;0.86;83.16
10978;BME280;5542;48.272;10.794;2023-01-31T03:03:18;96448.72;;;0.76;83.53
10978;BME280;5542;48.272;10.794;2023-01-31T03:08:58;96448.91;;;0.83;83.15
10978;BME280;5542;48.272;10.794;2023-01-31T03:11:34;96453.66;;;0.70;83.66
10978;BME280;5542;48.272;10.794;2023-01-31T03:14:11;96456.59;;;0.75;83.32
10978;BME280;5542;48.272;10.794;2023-01-31T03:16:46;96447.75;;;0.77;82.82
10978;BME280;5542;48.272;10.794;2023-01-31T03:19:37;96450.09;;;0.71;83.62
10978;BME280;5542;48.272;10.794;2023-01-31T03:22:10;96450.25;;;0.87;83.04
10978;BME280;5542;48.272;10.794;2023-01-31T03:24:42;96463.94;;;0.80;82.85
10978;BME280;5542;48.272;10.794;2023-01-31T03:27:11;96462.59;;;0.75;83.62
10978;BME280;5542;48.272;10.794;2023-01-31T03:29:38;96471.03;;;0.77;83.07
10978;BME280;5542;48.272;10.794;2023-01-31T03:32:08;96466.88;;;0.85;82.88
10978;BME280;5542;48.272;10.794;2023-01-31T03:34:37;96467.13;;;0.73;83.37
10978;BME280;5542;48.272;10.794;2023-01-31T03:37:10;96476.50;;;0.74;82.86
10978;BME280;5542;48.272;10.794;2023-01-31T03:39:45;96468.38;;;0.87;82.52
10978;BME280;5542;48.272;10.794;2023-01-31T03:42:20;96469.72;;;0.73;83.05
10978;BME280;5542;48.272;10.794;2023-01-31T03:44:53;96465.41;;;0.64;83.19
10978;BME280;5542;48.272;10.794;2023-01-31T03:47:24;96472.09;;;0.67;83.04
10978;BME280;5542;48.272;10.794;2023-01-31T03:49:53;96472.44;;;0.54;83.84
10978;BME280;5542;48.272;10.794;2023-01-31T03:52:25;96480.94;;;0.64;83.05
10978;BME280;5542;48.272;10.794;2023-01-31T03:54:58;96486.72;;;0.58;83.53
10978;BME280;5542;48.272;10.794;2023-01-31T03:57:29;96491.91;;;0.58;83.73
10978;BME280;5542;48.272;10.794;2023-01-31T03:59:59;96483.91;;;0.51;83.96
10978;BME280;5542;48.272;10.794;2023-01-31T04:02:32;96489.25;;;0.68;83.03
10978;BME280;5542;48.272;10.794;2023-01-31T04:05:04;96493.44;;;0.51;83.72
10978;BME280;5542;48.272;10.794;2023-01-31T04:07:32;96493.38;;;0.61;83.60
10978;BME280;5542;48.272;10.794;2023-01-31T04:10:00;96494.63;;;0.57;83.55
10978;BME280;5542;48.272;10.794;2023-01-31T04:12:27;96510.22;;;0.47;83.39
10978;BME280;5542;48.272;10.794;2023-01-31T04:14:54;96515.72;;;0.44;83.59
10978;BME280;5542;48.272;10.794;2023-01-31T04:17:20;96510.47;;;0.54;83.24
10978;BME280;5542;48.272;10.794;2023-01-31T04:19:47;96514.91;;;0.43;83.50
10978;BME280;5542;48.272;10.794;2023-01-31T04:22:13;96526.25;;;0.33;84.62
10978;BME280;5542;48.272;10.794;2023-01-31T04:24:40;96520.56;;;0.47;84.44
10978;BME280;5542;48.272;10.794;2023-01-31T04:27:08;96528.16;;;0.58;83.08
10978;BME280;5542;48.272;10.794;2023-01-31T04:29:34;96520.13;;;0.51;83.52
10978;BME280;5542;48.272;10.794;2023-01-31T04:32:01;96527.84;;;0.43;83.44
10978;BME280;5542;48.272;10.794;2023-01-31T04:34:27;96526.97;;;0.53;83.73
10978;BME280;5542;48.272;10.794;2023-01-31T04:36:54;96531.97;;;0.54;83.48
10978;BME280;5542;48.272;10.794;2023-01-31T04:39:20;96523.69;;;0.50;83.07
10978;BME280;5542;48.272;10.794;2023-01-31T04:41:47;96538.63;;;0.57;83.53
10978;BME280;5542;48.272;10.794;2023-01-31T04:44:15;96535.16;;;0.48;83.58
10978;BME280;5542;48.272;10.794;2023-01-31T04:46:42;96544.59;;;0.39;83.71
10978;BME280;5542;48.272;10.794;2023-01-31T04:49:09;96540.03;;;0.51;83.73
10978;BME280;5542;48.272;10.794;2023-01-31T04:51:35;96544.44;;;0.41;84.36
10978;BME280;5542;48.272;10.794;2023-01-31T04:54:03;96547.50;;;0.54;83.33
10978;BME280;5542;48.272;10.794;2023-01-31T04:56:29;96548.38;;;0.45;84.01
10978;BME280;5542;48.272;10.794;2023-01-31T04:58:56;96547.84;;;0.41;84.36
10978;BME280;5542;48.272;10.794;2023-01-31T05:01:24;96552.22;;;0.41;83.89
10978;BME280;5542;48.272;10.794;2023-01-31T05:03:51;96557.78;;;0.46;84.38
10978;BME280;5542;48.272;10.794;2023-01-31T05:06:18;96560.84;;;0.59;83.57
10978;BME280;5542;48.272;10.794;2023-01-31T05:08:44;96551.72;;;0.55;83.10
10978;BME280;5542;48.272;10.794;2023-01-31T05:11:11;96553.47;;;0.37;84.00
10978;BME280;5542;48.272;10.794;2023-01-31T05:13:38;96552.97;;;0.51;83.85
10978;BME280;5542;48.272;10.794;2023-01-31T05:16:06;96548.22;;;0.46;84.13
10978;BME280;5542;48.272;10.794;2023-01-31T05:18:34;96553.13;;;0.49;83.85
10978;BME280;5542;48.272;10.794;2023-01-31T05:21:01;96552.84;;;0.53;83.01
10978;BME280;5542;48.272;10.794;2023-01-31T05:23:28;96560.66;;;0.43;83.23
10978;BME280;5542;48.272;10.794;2023-01-31T05:25:55;96554.22;;;0.47;83.16
10978;BME280;5542;48.272;10.794;2023-01-31T05:28:22;96559.94;;;0.50;83.13
10978;BME280;5542;48.272;10.794;2023-01-31T05:30:50;96567.63;;;0.60;83.18
10978;BME280;5542;48.272;10.794;2023-01-31T05:33:16;96573.94;;;0.58;82.84
10978;BME280;5542;48.272;10.794;2023-01-31T05:35:46;96571.72;;;0.63;82.36
10978;BME280;5542;48.272;10.794;2023-01-31T05:38:13;96571.78;;;0.53;83.04
10978;BME280;5542;48.272;10.794;2023-01-31T05:40:41;96570.13;;;0.52;82.62
10978;BME280;5542;48.272;10.794;2023-01-31T05:43:07;96568.66;;;0.49;83.79
10978;BME280;5542;48.272;10.794;2023-01-31T05:45:34;96570.59;;;0.65;82.40
10978;BME280;5542;48.272;10.794;2023-01-31T05:48:01;96569.34;;;0.69;81.46
10978;BME280;5542;48.272;10.794;2023-01-31T05:50:28;96576.97;;;0.71;81.92
10978;BME280;5542;48.272;10.794;2023-01-31T05:52:59;96571.66;;;0.72;81.61
10978;BME280;5542;48.272;10.794;2023-01-31T05:55:27;96555.16;;;0.73;81.81
10978;BME280;5542;48.272;10.794;2023-01-31T05:57:55;96558.50;;;0.84;81.18
10978;BME280;5542;48.272;10.794;2023-01-31T06:00:22;96560.06;;;0.76;81.98
10978;BME280;5542;48.272;10.794;2023-01-31T06:02:49;96567.44;;;0.71;81.89
10978;BME280;5542;48.272;10.794;2023-01-31T06:05:16;96560.78;;;0.69;81.99
10978;BME280;5542;48.272;10.794;2023-01-31T06:07:42;96557.53;;;0.85;80.84
10978;BME280;5542;48.272;10.794;2023-01-31T06:10:10;96556.13;;;0.72;81.82
10978;BME280;5542;48.272;10.794;2023-01-31T06:12:37;96556.56;;;0.68;81.87
10978;BME280;5542;48.272;10.794;2023-01-31T06:15:05;96545.69;;;0.64;82.03
10978;BME280;5542;48.272;10.794;2023-01-31T06:17:32;96548.47;;;0.71;82.10
10978;BME280;5542;48.272;10.794;2023-01-31T06:19:58;96551.50;;;0.66;81.94
10978;BME280;5542;48.272;10.794;2023-01-31T06:22:25;96544.19;;;0.62;81.77
10978;BME280;5542;48.272;10.794;2023-01-31T06:24:51;96558.03;;;0.53;82.45
10978;BME280;5542;48.272;10.794;2023-01-31T06:27:19;96557.81;;;0.64;81.91
10978;BME280;5542;48.272;10.794;2023-01-31T06:29:46;96545.25;;;0.69;81.68
10978;BME280;5542;48.272;10.794;2023-01-31T06:32:12;96552.34;;;0.67;81.67
10978;BME280;5542;48.272;10.794;2023-01-31T06:34:39;96560.84;;;0.59;82.00
10978;BME280;5542;48.272;10.794;2023-01-31T06:37:07;96561.88;;;0.66;81.99
10978;BME280;5542;48.272;10.794;2023-01-31T06:39:34;96567.56;;;0.70;82.15
10978;BME280;5542;48.272;10.794;2023-01-31T06:42:00;96577.41;;;0.66;81.85
10978;BME280;5542;48.272;10.794;2023-01-31T06:44:28;96580.41;;;0.71;81.63
10978;BME280;5542;48.272;10.794;2023-01-31T06:46:57;96584.94;;;0.60;81.97
10978;BME280;5542;48.272;10.794;2023-01-31T06:49:24;96578.31;;;0.57;82.29
10978;BME280;5542;48.272;10.794;2023-01-31T06:51:50;96583.97;;;0.61;82.52
10978;BME280;5542;48.272;10.794;2023-01-31T06:54:17;96580.47;;;0.52;83.02
10978;BME280;5542;48.272;10.794;2023-01-31T06:56:43;96578.69;;;0.62;82.52
10978;BME280;5542;48.272;10.794;2023-01-31T06:59:10;96582.63;;;0.57;82.39
10978;BME280;5542;48.272;10.794;2023-01-31T07:01:38;96588.41;;;0.50;82.76
10978;BME280;5542;48.272;10.794;2023-01-31T07:04:04;96596.31;;;0.49;82.83
10978;BME280;5542;48.272;10.794;2023-01-31T07:06:31;96598.16;;;0.57;82.42
10978;BME280;5542;48.272;10.794;2023-01-31T07:08:58;96597.41;;;0.46;82.99
10978;BME280;5542;48.272;10.794;2023-01-31T07:11:24;96591.19;;;0.39;84.05
10978;BME280;5542;48.272;10.794;2023-01-31T07:13:51;96589.09;;;0.53;82.89
10978;BME280;5542;48.272;10.794;2023-01-31T07:16:17;96586.56;;;0.61;82.00
10978;BME280;5542;48.272;10.794;2023-01-31T07:18:45;96587.09;;;0.64;81.99
10978;BME280;5542;48.272;10.794;2023-01-31T07:21:12;96590.03;;;0.51;82.74
10978;BME280;5542;48.272;10.794;2023-01-31T07:23:38;96595.50;;;0.48;82.50
10978;BME280;5542;48.272;10.794;2023-01-31T07:26:05;96594.31;;;0.43;82.77
10978;BME280;5542;48.272;10.794;2023-01-31T07:28:32;96588.13;;;0.54;82.52
10978;BME280;5542;48.272;10.794;2023-01-31T07:31:03;96603.22;;;0.58;81.95
10978;BME280;5542;48.272;10.794;2023-01-31T07:33:30;96602.25;;;0.59;82.45
10978;BME280;5542;48.272;10.794;2023-01-31T07:36:00;96606.38;;;0.97;80.76
10978;BME280;5542;48.272;10.794;2023-01-31T07:38:26;96604.75;;;0.96;80.71
10978;BME280;5542;48.272;10.794;2023-01-31T07:40:53;96604.09;;;1.12;79.94
10978;BME280;5542;48.272;10.794;2023-01-31T07:43:19;96597.41;;;1.27;78.63
10978;BME280;5542;48.272;10.794;2023-01-31T07:45:46;96596.84;;;1.34;80.00
10978;BME280;5542;48.272;10.794;2023-01-31T07:48:12;96597.41;;;1.63;77.20
10978;BME280;5542;48.272;10.794;2023-01-31T07:50:39;96589.69;;;1.71;77.50
10978;BME280;5542;48.272;10.794;2023-01-31T07:53:07;96595.59;;;1.90;75.18
10978;BME280;5542;48.272;10.794;2023-01-31T07:55:33;96590.84;;;2.03;74.94
10978;BME280;5542;48.272;10.794;2023-01-31T07:58:00;96593.19;;;2.14;75.09
10978;BME280;5542;48.272;10.794;2023-01-31T08:00:26;96603.59;;;2.22;73.88
10978;BME280;5542;48.272;10.794;2023-01-31T08:03:23;96594.63;;;2.43;72.49
10978;BME280;5542;48.272;10.794;2023-01-31T08:06:09;96595.53;;;2.76;70.82
10978;BME280;5542;48.272;10.794;2023-01-31T08:08:39;96591.16;;;2.76;70.43
10978;BME280;5542;48.272;10.794;2023-01-31T08:11:06;96594.03;;;2.65;70.69
10978;BME280;5542;48.272;10.794;2023-01-31T08:13:32;96593.41;;;2.71;70.17
10978;BME280;5542;48.272;10.794;2023-01-31T08:15:59;96595.34;;;2.69;70.50
10978;BME280;5542;48.272;10.794;2023-01-31T08:18:26;96588.50;;;2.60;69.92
10978;BME280;5542;48.272;10.794;2023-01-31T08:20:52;96599.50;;;2.54;70.62
10978;BME280;5542;48.272;10.794;2023-01-31T08:23:19;96589.13;;;2.54;70.90
10978;BME280;5542;48.272;10.794;2023-01-31T08:25:47;96593.56;;;2.62;69.91
10978;BME280;5542;48.272;10.794;2023-01-31T08:28:14;96591.63;;;2.80;69.47
10978;BME280;5542;48.272;10.794;2023-01-31T08:30:41;96591.22;;;3.01;68.55
10978;BME280;5542;48.272;10.794;2023-01-31T08:33:08;96591.38;;;3.07;68.30
10978;BME280;5542;48.272;10.794;2023-01-31T08:35:35;96585.38;;;3.31;66.90
10978;BME280;5542;48.272;10.794;2023-01-31T08:38:02;96587.69;;;3.34;66.68
10978;BME280;5542;48.272;10.794;2023-01-31T08:40:29;96598.41;;;3.40;66.15
10978;BME280;5542;48.272;10.794;2023-01-31T08:42:59;96592.72;;;3.52;66.66
10978;BME280;5542;48.272;10.794;2023-01-31T08:45:26;96591.53;;;3.96;64.57
10978;BME280;5542;48.272;10.794;2023-01-31T08:47:53;96599.66;;;3.93;63.44
10978;BME280;5542;48.272;10.794;2023-01-31T08:50:21;96595.91;;;4.11;61.99
10978;BME280;5542;48.272;10.794;2023-01-31T08:52:51;96596.09;;;3.94;62.01
10978;BME280;5542;48.272;10.794;2023-01-31T08:55:18;96594.09;;;4.20;63.27
10978;BME280;5542;48.272;10.794;2023-01-31T08:57:44;96601.63;;;4.54;60.27
10978;BME280;5542;48.272;10.794;2023-01-31T09:00:13;96594.56;;;4.24;60.58
10978;BME280;5542;48.272;10.794;2023-01-31T09:02:40;96593.47;;;4.10;60.76
10978;BME280;5542;48.272;10.794;2023-01-31T09:05:07;96589.94;;;3.95;61.37
10978;BME280;5542;48.272;10.794;2023-01-31T09:07:34;96595.97;;;3.71;61.46
10978;BME280;5542;48.272;10.794;2023-01-31T09:10:01;96601.31;;;3.45;63.37
10978;BME280;5542;48.272;10.794;2023-01-31T09:12:27;96600.69;;;3.43;63.44
10978;BME280;5542;48.272;10.794;2023-01-31T09:14:54;96588.00;;;3.56;63.21
10978;BME280;5542;48.272;10.794;2023-01-31T09:17:22;96602.91;;;3.13;64.11
10978;BME280;5542;48.272;10.794;2023-01-31T09:19:49;96596.44;;;3.25;63.91
10978;BME280;5542;48.272;10.794;2023-01-31T09:22:15;96599.97;;;3.08;64.05
10978;BME280;5542;48.272;10.794;2023-01-31T09:24:42;96606.00;;;3.00;64.66
10978;BME280;5542;48.272;10.794;2023-01-31T09:27:10;96598.88;;;3.19;64.56
10978;BME280;5542;48.272;10.794;2023-01-31T09:29:36;96594.78;;;3.08;64.57
10978;BME280;5542;48.272;10.794;2023-01-31T09:32:03;96590.75;;;3.14;64.05
10978;BME280;5542;48.272;10.794;2023-01-31T09:34:31;96592.50;;;2.97;64.26
10978;BME280;5542;48.272;10.794;2023-01-31T09:36:58;96599.31;;;2.90;65.36
10978;BME280;5542;48.272;10.794;2023-01-31T09:39:25;96598.06;;;3.10;65.56
10978;BME280;5542;48.272;10.794;2023-01-31T09:41:53;96599.38;;;3.30;64.45
10978;BME280;5542;48.272;10.794;2023-01-31T09:44:25;96592.88;;;3.43;63.60
10978;BME280;5542;48.272;10.794;2023-01-31T09:46:58;96594.81;;;3.41;62.91
10978;BME280;5542;48.272;10.794;2023-01-31T09:49:41;96602.63;;;3.49;63.22
10978;BME280;5542;48.272;10.794;2023-01-31T09:52:09;96598.09;;;3.67;63.18
10978;BME280;5542;48.272;10.794;2023-01-31T09:54:38;96600.69;;;3.75;62.07
10978;BME280;5542;48.272;10.794;2023-01-31T09:57:15;96596.13;;;3.77;62.56
10978;BME280;5542;48.272;10.794;2023-01-31T09:59:48;96597.25;;;3.91;61.17
10978;BME280;5542;48.272;10.794;2023-01-31T10:02:30;96596.44;;;3.91;60.84
10978;BME280;5542;48.272;10.794;2023-01-31T10:05:17;96600.31;;;4.03;60.94
10978;BME280;5542;48.272;10.794;2023-01-31T10:07:48;96591.56;;;3.88;59.84
10978;BME280;5542;48.272;10.794;2023-01-31T10:10:25;96591.72;;;3.70;60.73
10978;BME280;5542;48.272;10.794;2023-01-31T10:12:55;96588.28;;;3.94;59.89
10978;BME280;5542;48.272;10.794;2023-01-31T10:15:29;96583.44;;;3.82;58.99
10978;BME280;5542;48.272;10.794;2023-01-31T10:18:01;96588.16;;;3.71;59.45
10978;BME280;5542;48.272;10.794;2023-01-31T10:20:34;96576.63;;;3.49;59.29
10978;BME280;5542;48.272;10.794;2023-01-31T10:23:06;96583.63;;;3.56;60.36
10978;BME280;5542;48.272;10.794;2023-01-31T10:25:39;96573.69;;;3.60;59.71
10978;BME280;5542;48.272;10.794;2023-01-31T10:28:15;96578.59;;;3.47;60.18
10978;BME280;5542;48.272;10.794;2023-01-31T10:30:46;96572.38;;;3.56;60.55
10978;BME280;5542;48.272;10.794;2023-01-31T10:33:20;96552.88;;;3.60;59.06
10978;BME280;5542;48.272;10.794;2023-01-31T10:35:51;96553.53;;;3.62;61.24
10978;BME280;5542;48.272;10.794;2023-01-31T10:38:22;96550.44;;;3.67;60.65
10978;BME280;5542;48.272;10.794;2023-01-31T10:40:56;96547.50;;;3.70;60.75
10978;BME280;5542;48.272;10.794;2023-01-31T10:43:31;96547.19;;;3.73;60.17
10978;BME280;5542;48.272;10.794;2023-01-31T10:45:59;96540.50;;;3.78;60.11
10978;BME280;5542;48.272;10.794;2023-01-31T10:48:27;96542.31;;;3.62;60.73
10978;BME280;5542;48.272;10.794;2023-01-31T10:51:17;96553.84;;;3.67;60.63
10978;BME280;5542;48.272;10.794;2023-01-31T10:54:03;96538.75;;;3.71;59.86
10978;BME280;5542;48.272;10.794;2023-01-31T10:56:32;96548.97;;;3.64;60.53
10978;BME280;5542;48.272;10.794;2023-01-31T10:59:02;96535.00;;;3.49;61.45
10978;BME280;5542;48.272;10.794;2023-01-31T11:01:29;96523.97;;;3.47;61.02
10978;BME280;5542;48.272;10.794;2023-01-31T11:03:56;96523.94;;;3.55;61.66
10978;BME280;5542;48.272;10.794;2023-01-31T11:06:25;96519.72;;;3.54;61.01
10978;BME280;5542;48.272;10.794;2023-01-31T11:08:54;96519.91;;;3.44;61.45
10978;BME280;5542;48.272;10.794;2023-01-31T11:11:24;96501.38;;;3.47;61.43
10978;BME280;5542;48.272;10.794;2023-01-31T11:13:57;96503.50;;;3.44;61.97
10978;BME280;5542;48.272;10.794;2023-01-31T11:16:24;96491.47;;;3.43;62.14
10978;BME280;5542;48.272;10.794;2023-01-31T11:18:52;96479.94;;;3.37;61.73
10978;BME280;5542;48.272;10.794;2023-01-31T11:21:22;96480.56;;;3.31;62.11
10978;BME280;5542;48.272;10.794;2023-01-31T11:23:54;96483.34;;;3.38;62.04
10978;BME280;5542;48.272;10.794;2023-01-31T11:26:26;96483.00;;;3.41;61.61
10978;BME280;5542;48.272;10.794;2023-01-31T11:28:54;96483.31;;;3.46;62.81
10978;BME280;5542;48.272;10.794;2023-01-31T11:31:26;96483.50;;;3.52;61.72
10978;BME280;5542;48.272;10.794;2023-01-31T11:33:56;96468.34;;;3.56;61.90
10978;BME280;5542;48.272;10.794;2023-01-31T11:36:24;96465.28;;;3.44;62.03
10978;BME280;5542;48.272;10.794;2023-01-31T11:38:53;96452.91;;;3.54;62.52
10978;BME280;5542;48.272;10.794;2023-01-31T11:41:28;96442.69;;;3.45;62.50
10978;BME280;5542;48.272;10.794;2023-01-31T11:44:06;96439.59;;;3.49;62.33
10978;BME280;5542;48.272;10.794;2023-01-31T11:46:41;96427.88;;;3.53;63.08
10978;BME280;5542;48.272;10.794;2023-01-31T11:49:11;96418.16;;;3.39;63.02
10978;BME280;5542;48.272;10.794;2023-01-31T11:51:38;96422.88;;;3.36;63.07
10978;BME280;5542;48.272;10.794;2023-01-31T11:54:13;96419.78;;;3.40;63.88
10978;BME280;5542;48.272;10.794;2023-01-31T11:56:43;96423.00;;;3.50;64.23
10978;BME280;5542;48.272;10.794;2023-01-31T11:59:17;96423.63;;;3.60;64.00
10978;BME280;5542;48.272;10.794;2023-01-31T12:01:46;96430.59;;;3.68;63.23
10978;BME280;5542;48.272;10.794;2023-01-31T12:04:17;96434.28;;;3.82;62.50
10978;BME280;5542;48.272;10.794;2023-01-31T12:06:58;96437.13;;;3.64;63.96
10978;BME280;5542;48.272;10.794;2023-01-31T12:09:29;96436.91;;;3.74;62.89
10978;BME280;5542;48.272;10.794;2023-01-31T12:11:59;96434.56;;;3.48;63.93
10978;BME280;5542;48.272;10.794;2023-01-31T12:14:36;96431.94;;;3.56;64.69
10978;BME280;5542;48.272;10.794;2023-01-31T12:17:04;96418.59;;;3.59;64.02
10978;BME280;5542;48.272;10.794;2023-01-31T12:19:40;96420.69;;;3.64;64.44
10978;BME280;5542;48.272;10.794;2023-01-31T12:22:14;96412.38;;;3.76;63.65
10978;BME280;5542;48.272;10.794;2023-01-31T12:24:53;96416.41;;;3.79;63.27
10978;BME280;5542;48.272;10.794;2023-01-31T12:27:33;96425.91;;;3.64;64.00
10978;BME280;5542;48.272;10.794;2023-01-31T12:30:24;96428.38;;;3.57;64.41
10978;BME280;5542;48.272;10.794;2023-01-31T12:33:08;96423.81;;;3.59;64.69
10978;BME280;5542;48.272;10.794;2023-01-31T12:35:50;96409.16;;;3.66;64.22
10978;BME280;5542;48.272;10.794;2023-01-31T12:38:43;96397.16;;;3.57;64.86
10978;BME280;5542;48.272;10.794;2023-01-31T12:41:24;96395.88;;;3.53;64.74
10978;BME280;5542;48.272;10.794;2023-01-31T12:44:09;96393.28;;;3.45;64.79
10978;BME280;5542;48.272;10.794;2023-01-31T12:46:55;96388.25;;;3.43;64.61
10978;BME280;5542;48.272;10.794;2023-01-31T12:49:47;96390.00;;;3.59;64.73
10978;BME280;5542;48.272;10.794;2023-01-31T12:52:20;96384.75;;;3.67;65.49
10978;BME280;5542;48.272;10.794;2023-01-31T12:55:01;96378.38;;;3.78;64.82
10978;BME280;5542;48.272;10.794;2023-01-31T12:57:36;96375.22;;;3.91;64.16
10978;BME280;5542;48.272;10.794;2023-01-31T13:00:26;96372.44;;;3.92;63.67
10978;BME280;5542;48.272;10.794;2023-01-31T13:03:14;96369.50;;;3.95;63.88
10978;BME280;5542;48.272;10.794;2023-01-31T13:05:47;96383.38;;;3.88;63.54
10978;BME280;5542;48.272;10.794;2023-01-31T13:08:18;96370.53;;;3.86;63.37
10978;BME280;5542;48.272;10.794;2023-01-31T13:10:50;96359.94;;;3.88;62.92
10978;BME280;5542;48.272;10.794;2023-01-31T13:13:24;96349.03;;;3.92;63.44
10978;BME280;5542;48.272;10.794;2023-01-31T13:15:54;96342.94;;;3.77;63.17
10978;BME280;5542;48.272;10.794;2023-01-31T13:18:24;96338.56;;;3.69;64.20
10978;BME280;5542;48.272;10.794;2023-01-31T13:20:54;96333.94;;;3.79;64.28
10978;BME280;5542;48.272;10.794;2023-01-31T13:23:24;96320.06;;;3.95;64.13
10978;BME280;5542;48.272;10.794;2023-01-31T13:25:57;96325.38;;;4.02;62.99
10978;BME280;5542;48.272;10.794;2023-01-31T13:28:30;96335.28;;;4.06;64.07
10978;BME280;5542;48.272;10.794;2023-01-31T13:31:01;96342.31;;;3.98;63.47
10978;BME280;5542;48.272;10.794;2023-01-31T13:33:34;96329.66;;;3.95;62.80
10978;BME280;5542;48.272;10.794;2023-01-31T13:36:21;96333.81;;;3.81;64.29
10978;BME280;5542;48.272;10.794;2023-01-31T13:38:49;96325.31;;;3.87;63.39
10978;BME280;5542;48.272;10.794;2023-01-31T13:41:21;96320.03;;;3.72;62.81
10978;BME280;5542;48.272;10.794;2023-01-31T13:43:51;96317.63;;;3.63;63.63
10978;BME280;5542;48.272;10.794;2023-01-31T13:46:20;96322.53;;;3.57;64.41
10978;BME280;5542;48.272;10.794;2023-01-31T13:48:51;96322.31;;;3.67;64.35
10978;BME280;5542;48.272;10.794;2023-01-31T13:51:24;96322.34;;;3.59;63.99
10978;BME280;5542;48.272;10.794;2023-01-31T13:53:57;96306.28;;;3.55;63.95
10978;BME280;5542;48.272;10.794;2023-01-31T13:56:28;96308.06;;;3.55;64.22
10978;BME280;5542;48.272;10.794;2023-01-31T13:58:57;96326.47;;;3.45;63.97
10978;BME280;5542;48.272;10.794;2023-01-31T14:01:26;96324.47;;;3.55;64.23
10978;BME280;5542;48.272;10.794;2023-01-31T14:04:29;96323.84;;;3.53;64.58
10978;BME280;5542;48.272;10.794;2023-01-31T14:07:14;96333.69;;;3.27;65.54
10978;BME280;5542;48.272;10.794;2023-01-31T14:09:43;96325.06;;;3.34;65.51